Time;durP1;ratioP1;P1;durP2;ratioP2;P2;SDS_P1;SDS_P2;PMS_P1;PMS_P2;Temp;Humidity;BMP_temperature;BMP_pressure;BME280_temperature;BME280_humidity;BME280_pressure;Samples;Min_cycle;Max_cycle;Signal;HPM_P1;HPM_P2
2022/06/27 00:01:33;;;;;;;4.30;3.70;;;;;;;13.16;88.27;97678.96;109933;1250;70872;-78
2022/06/27 00:04:04;;;;;;;4.90;4.10;;;;;;;13.16;88.67;97677.92;109939;1250;67706;-80
2022/06/27 00:06:33;;;;;;;5.00;4.00;;;;;;;13.18;89.41;97673.98;110025;1249;68507;-80
2022/06/27 00:09:03;;;;;;;;;;;;;;;13.17;88.62;97671.21;109986;1250;59685;-80
2022/06/27 00:11:33;;;;;;;5.50;4.00;;;;;;;13.14;87.48;97668.46;109901;1250;59672;-80
2022/06/27 00:14:03;;;;;;;4.00;3.60;;;;;;;13.11;86.88;97668.55;109917;1250;71880;-78
2022/06/27 00:16:33;;;;;;;4.00;3.20;;;;;;;13.08;87.86;97670.55;109919;1250;68067;-80
2022/06/27 00:19:19;;;;;;;4.40;3.90;;;;;;;13.05;88.32;97673.94;109891;1251;69396;-81
2022/06/27 00:21:50;;;;;;;5.20;4.50;;;;;;;13.03;88.52;97671.11;110009;1250;59674;-82
2022/06/27 00:24:19;;;;;;;4.90;4.40;;;;;;;13.00;88.04;97667.88;110133;1250;59726;-79
2022/06/27 00:26:50;;;;;;;6.00;4.30;;;;;;;12.94;87.82;97668.66;109979;1250;71360;-76
2022/06/27 00:29:20;;;;;;;5.10;4.00;;;;;;;12.89;86.40;97670.10;109991;1249;67749;-79
2022/06/27 00:31:49;;;;;;;4.90;3.90;;;;;;;12.84;85.90;97666.83;109652;1250;69692;-78
2022/06/27 00:34:19;;;;;;;5.70;4.60;;;;;;;12.79;87.55;97671.63;109835;1250;59703;-80
2022/06/27 00:36:49;;;;;;;5.90;4.70;;;;;;;12.75;87.28;97670.13;109844;1250;59723;-78
2022/06/27 00:39:19;;;;;;;5.10;4.20;;;;;;;12.72;86.97;97672.48;110029;1250;71392;-78
2022/06/27 00:41:49;;;;;;;4.70;3.40;;;;;;;12.71;87.81;97669.57;109797;1250;68417;-74
2022/06/27 00:44:40;;;;;;;5.60;4.40;;;;;;;12.70;88.32;97669.82;109953;1250;69429;-78
2022/06/27 00:47:13;;;;;;;4.10;3.40;;;;;;;12.69;86.99;97669.56;109877;1250;59722;-81
2022/06/27 00:49:44;;;;;;;4.60;3.30;;;;;;;12.68;85.35;97669.45;110030;1247;59709;-76
2022/06/27 00:52:15;;;;;;;4.10;3.30;;;;;;;12.67;85.29;97663.27;109909;1249;69746;-78
2022/06/27 00:54:45;;;;;;;;;;;;;;;12.65;86.00;97662.55;109762;1250;68372;-68
2022/06/27 00:57:17;;;;;;;4.80;3.30;;;;;;;12.64;87.93;97661.95;109768;1250;69230;-79
2022/06/27 00:59:46;;;;;;;5.00;3.20;;;;;;;12.61;87.62;97661.45;110142;1250;59780;-78
2022/06/27 01:02:16;;;;;;;3.80;2.80;;;;;;;12.57;87.59;97659.11;109904;1247;59693;-75
2022/06/27 01:04:46;;;;;;;3.70;3.00;;;;;;;12.55;88.23;97657.93;110021;1248;71515;-72
2022/06/27 01:07:16;;;;;;;5.50;4.20;;;;;;;12.52;87.53;97662.65;110134;1247;68060;-77
2022/06/27 01:09:47;;;;;;;4.30;3.50;;;;;;;12.51;88.03;97659.98;110062;1249;68985;-77
2022/06/27 01:12:20;;;;;;;4.50;3.90;;;;;;;12.47;86.28;97663.89;109995;1247;59727;-78
2022/06/27 01:14:51;;;;;;;4.80;3.80;;;;;;;12.46;88.46;97666.27;110103;1250;59676;-78
2022/06/27 01:17:20;;;;;;;4.20;3.60;;;;;;;12.43;89.33;97670.67;109919;1249;71505;-78
2022/06/27 01:19:51;;;;;;;4.40;3.90;;;;;;;12.41;90.40;97669.25;110095;1250;68378;-76
2022/06/27 01:22:22;;;;;;;5.50;3.90;;;;;;;12.40;90.63;97672.14;109845;1250;68646;-79
2022/06/27 01:24:52;;;;;;;4.90;4.20;;;;;;;12.39;90.54;97676.94;109908;1248;59755;-74
2022/06/27 01:27:22;;;;;;;5.40;4.20;;;;;;;12.38;87.63;97674.41;109850;1247;59697;-69
2022/06/27 01:29:52;;;;;;;;;;;;;;;12.36;86.57;97670.70;109868;1248;71197;-77
2022/06/27 01:32:23;;;;;;;6.70;5.60;;;;;;;12.34;86.93;97668.23;110087;1250;67896;-78
2022/06/27 01:34:55;;;;;;;4.30;3.60;;;;;;;12.33;88.59;97665.35;110212;1247;67674;-70
2022/06/27 01:37:25;;;;;;;7.50;4.60;;;;;;;12.30;87.24;97662.23;110141;1247;59733;-80
2022/06/27 01:40:00;;;;;;;5.10;3.60;;;;;;;12.27;89.36;97664.96;109985;1248;59749;-78
2022/06/27 01:42:31;;;;;;;5.00;4.40;;;;;;;12.22;89.07;97665.07;109959;1250;70570;-80
2022/06/27 01:45:01;;;;;;;5.00;4.10;;;;;;;12.19;88.77;97663.93;109936;1248;67490;-74
2022/06/27 01:47:32;;;;;;;6.20;4.40;;;;;;;12.17;89.19;97670.87;109936;1250;69461;-79
2022/06/27 01:50:06;;;;;;;5.60;4.60;;;;;;;12.17;90.75;97671.09;109989;1250;59776;-74
2022/06/27 01:52:43;;;;;;;7.00;4.30;;;;;;;12.14;90.49;97670.21;109896;1250;59692;-79
2022/06/27 01:55:14;;;;;;;4.60;3.70;;;;;;;12.11;89.70;97672.21;110151;1250;70759;-77
2022/06/27 01:57:47;;;;;;;5.10;3.80;;;;;;;12.08;89.73;97672.60;110058;1250;67952;-78
2022/06/27 02:00:19;;;;;;;4.90;3.90;;;;;;;12.06;90.47;97674.69;109979;1250;69486;-79
2022/06/27 02:03:03;;;;;;;6.60;4.60;;;;;;;12.02;89.68;97675.20;109990;1250;59748;-81
2022/06/27 02:05:37;;;;;;;4.20;3.70;;;;;;;11.96;87.76;97677.00;110081;1250;59832;-81
2022/06/27 02:08:09;;;;;;;5.10;3.90;;;;;;;11.92;87.69;97678.19;110200;1250;71294;-78
2022/06/27 02:10:40;;;;;;;5.90;4.50;;;;;;;11.89;88.30;97679.29;110065;1249;67841;-79
2022/06/27 02:13:13;;;;;;;5.60;4.10;;;;;;;11.88;89.55;97678.16;109961;1249;68623;-82
2022/06/27 02:16:04;;;;;;;5.70;4.50;;;;;;;11.86;90.27;97678.44;110006;1251;59752;-76
2022/06/27 02:18:37;;;;;;;5.70;4.20;;;;;;;11.85;89.24;97680.31;109987;1250;59686;-75
2022/06/27 02:21:10;;;;;;;4.20;3.60;;;;;;;11.84;87.46;97687.50;110088;1250;71592;-75
2022/06/27 02:23:42;;;;;;;4.40;3.90;;;;;;;11.83;86.41;97687.94;110050;1250;67657;-76
2022/06/27 02:26:14;;;;;;;5.90;4.70;;;;;;;11.82;87.20;97691.13;110076;1250;68498;-80
2022/06/27 02:28:45;;;;;;;5.50;4.70;;;;;;;11.81;89.40;97693.31;109847;1250;59712;-77
2022/06/27 02:31:15;;;;;;;5.50;4.30;;;;;;;11.79;89.39;97692.95;110051;1250;59659;-68
2022/06/27 02:33:47;;;;;;;4.80;4.20;;;;;;;11.77;89.96;97693.42;109944;1250;71627;-72
2022/06/27 02:36:21;;;;;;;3.90;3.40;;;;;;;11.76;90.20;97691.08;110184;1249;67659;-72
2022/06/27 02:38:54;;;;;;;7.00;5.10;;;;;;;11.73;90.17;97691.44;110170;1249;69490;-82
2022/06/27 02:41:33;;;;;;;4.70;3.80;;;;;;;11.70;90.11;97690.40;110130;1250;59669;-75
2022/06/27 02:44:10;;;;;;;5.40;4.90;;;;;;;11.70;90.11;97695.31;109995;1250;59697;-78
2022/06/27 02:46:41;;;;;;;7.50;5.40;;;;;;;11.71;91.63;97702.41;110187;1250;70595;-81
2022/06/27 02:49:12;;;;;;;6.70;4.60;;;;;;;11.70;90.32;97704.74;109879;1250;68057;-78
2022/06/27 02:51:53;;;;;;;6.50;5.70;;;;;;;11.68;89.08;97709.74;110155;1250;68521;-75
2022/06/27 02:54:51;;;;;;;6.00;4.20;;;;;;;11.64;89.49;97715.25;109935;1250;59752;-78
2022/06/27 02:57:31;;;;;;;4.50;4.00;;;;;;;11.62;88.43;97718.55;110182;1250;59770;-73
2022/06/27 03:00:05;;;;;;;6.20;4.60;;;;;;;11.62;87.98;97719.14;110036;1249;71360;-79
2022/06/27 03:02:37;;;;;;;5.30;4.40;;;;;;;11.62;88.43;97719.42;110033;1250;68583;-80
2022/06/27 03:05:28;;;;;;;6.00;4.30;;;;;;;11.62;88.43;97719.14;110053;1250;68807;-78
2022/06/27 03:07:58;;;;;;;5.80;4.70;;;;;;;11.60;88.19;97717.33;110049;1247;59837;-80
2022/06/27 03:10:28;;;;;;;5.40;3.90;;;;;;;11.61;89.29;97722.11;109818;1251;59742;-78
2022/06/27 03:12:57;;;;;;;5.20;4.60;;;;;;;11.64;89.07;97721.08;110040;1250;71865;-80
2022/06/27 03:15:27;;;;;;;5.60;4.90;;;;;;;11.66;87.29;97719.48;109948;1250;68470;-79
2022/06/27 03:18:00;;;;;;;9.80;5.60;;;;;;;11.69;87.51;97719.47;110001;1250;69306;-79
2022/06/27 03:20:29;;;;;;;5.50;4.90;;;;;;;11.73;87.49;97724.94;110012;1250;59685;-78
2022/06/27 03:23:08;;;;;;;5.50;4.80;;;;;;;11.78;88.25;97727.58;109969;1250;59701;-78
2022/06/27 03:25:42;;;;;;;7.60;5.30;;;;;;;11.82;89.75;97734.42;110144;1250;69745;-78
2022/06/27 03:28:12;;;;;;;5.60;5.00;;;;;;;11.88;90.12;97730.56;109755;1250;68571;-79
2022/06/27 03:30:43;;;;;;;6.90;5.30;;;;;;;11.93;90.59;97730.55;110083;1250;69502;-79
2022/06/27 03:33:14;;;;;;;6.60;5.50;;;;;;;11.99;89.92;97730.06;110065;1250;59728;-73
2022/06/27 03:35:54;;;;;;;5.90;5.00;;;;;;;12.07;89.99;97731.10;109878;1251;60184;-78
2022/06/27 03:38:24;;;;;;;7.00;5.10;;;;;;;12.15;88.56;97728.35;109898;1250;70052;-81
2022/06/27 03:40:54;;;;;;;6.70;5.00;;;;;;;12.25;88.19;97729.71;110010;1250;67871;-82
2022/06/27 03:43:24;;;;;;;5.10;4.30;;;;;;;12.35;90.13;97724.30;109956;1251;68753;-80
2022/06/27 03:45:55;;;;;;;7.00;5.70;;;;;;;12.42;89.77;97726.48;109935;1250;59729;-79
2022/06/27 03:51:33;;;;;;;6.70;4.60;;;;;;;12.61;89.40;97733.65;109933;1250;71537;-75
2022/06/27 03:54:02;;;;;;;5.50;4.40;;;;;;;12.69;88.52;97736.90;109992;1250;67891;-79
2022/06/27 03:56:32;;;;;;;7.50;4.70;;;;;;;12.78;88.65;97732.86;110105;1250;68619;-70
2022/06/27 03:59:01;;;;;;;4.80;4.00;;;;;;;12.88;88.56;97732.11;109964;1250;59826;-75
2022/06/27 04:01:31;;;;;;;6.30;5.40;;;;;;;13.01;89.57;97735.33;109963;1250;59707;-71
2022/06/27 04:04:02;;;;;;;6.30;5.70;;;;;;;13.16;90.05;97738.54;109928;1250;71376;-78
2022/06/27 04:06:32;;;;;;;8.00;5.90;;;;;;;13.25;88.45;97744.97;109898;1251;67784;-80
2022/06/27 04:09:02;;;;;;;8.50;6.70;;;;;;;13.34;87.50;97747.84;110068;1250;68695;-78
2022/06/27 04:11:31;;;;;;;7.80;6.40;;;;;;;13.37;86.62;97747.56;109874;1250;59704;-80
2022/06/27 04:14:01;;;;;;;6.70;5.40;;;;;;;13.34;86.55;97748.66;110104;1250;59641;-83
2022/06/27 04:16:52;;;;;;;7.20;5.90;;;;;;;13.39;87.49;97750.75;109951;1250;71364;-80
2022/06/27 04:19:58;;;;;;;8.80;6.30;;;;;;;13.51;87.47;97750.15;109531;1254;68748;-81
2022/06/27 04:22:51;;;;;;;7.10;5.60;;;;;;;13.65;87.57;97744.33;110088;1249;68667;-72
2022/06/27 04:25:38;;;;;;;7.00;5.20;;;;;;;13.80;87.15;97742.42;110077;1250;59763;-79
2022/06/27 04:28:08;;;;;;;8.50;7.00;;;;;;;13.91;86.85;97733.95;110002;1250;59716;-77
2022/06/27 04:30:40;;;;;;;8.00;6.20;;;;;;;14.01;86.90;97738.40;110071;1250;71736;-81
2022/06/27 04:33:17;;;;;;;10.20;6.40;;;;;;;14.12;86.80;97739.09;110069;1251;68541;-80
2022/06/27 04:35:54;;;;;;;8.10;6.70;;;;;;;14.24;86.99;97742.15;109964;1250;68453;-80
2022/06/27 04:38:31;;;;;;;8.00;6.00;;;;;;;14.36;86.35;97744.63;109982;1250;60164;-72
2022/06/27 04:41:26;;;;;;;7.00;6.30;;;;;;;14.53;86.03;97742.21;110113;1250;59715;-77
2022/06/27 04:43:55;;;;;;;6.50;5.80;;;;;;;14.62;85.33;97741.08;109873;1251;71171;-75
2022/06/27 04:46:25;;;;;;;6.50;5.50;;;;;;;14.72;85.17;97743.77;109971;1251;67996;-78
2022/06/27 04:49:21;;;;;;;5.90;5.10;;;;;;;14.82;84.63;97746.95;110142;1248;68610;-77
2022/06/27 04:52:07;;;;;;;7.80;5.50;;;;;;;14.98;84.48;97751.89;109923;1250;59706;-77
2022/06/27 04:54:38;;;;;;;7.90;5.00;;;;;;;15.12;84.52;97757.06;109881;1251;59845;-79
2022/06/27 04:57:08;;;;;;;5.20;4.70;;;;;;;15.28;84.18;97758.47;109726;1251;71567;-74
2022/06/27 04:59:37;;;;;;;6.20;4.80;;;;;;;15.45;83.60;97764.41;110144;1250;67807;-75
2022/06/27 05:02:15;;;;;;;5.80;3.90;;;;;;;15.62;83.01;97762.89;110154;1248;68861;-75
2022/06/27 05:04:44;;;;;;;7.20;5.20;;;;;;;15.79;82.56;97763.70;109902;1251;59824;-77
2022/06/27 05:07:13;;;;;;;6.80;5.10;;;;;;;15.99;81.86;97765.75;110157;1247;59752;-72
2022/06/27 05:09:44;;;;;;;7.50;4.90;;;;;;;16.25;81.47;97769.12;110154;1250;69706;-76
2022/06/27 05:12:13;;;;;;;4.80;3.80;;;;;;;16.53;80.03;97770.05;110029;1250;68529;-76
2022/06/27 05:14:42;;;;;;;6.60;4.70;;;;;;;16.95;80.10;97767.19;110153;1247;69376;-72
2022/06/27 05:17:12;;;;;;;;;;;;;;;17.43;78.43;97771.49;109990;1250;59751;-74
2022/06/27 05:19:42;;;;;;;4.60;4.20;;;;;;;17.70;75.38;97762.98;109932;1251;59662;-77
2022/06/27 05:22:11;;;;;;;4.90;4.10;;;;;;;18.02;74.50;97764.82;109879;1250;69809;-74
2022/06/27 05:24:40;;;;;;;4.60;3.90;;;;;;;18.18;71.68;97759.53;110029;1250;68633;-77
2022/06/27 05:27:09;;;;;;;6.60;4.20;;;;;;;18.45;71.50;97758.83;110122;1250;68527;-75
2022/06/27 05:29:39;;;;;;;6.40;4.10;;;;;;;18.45;70.43;97757.71;109912;1251;59696;-70
2022/06/27 05:32:09;;;;;;;5.30;4.00;;;;;;;18.42;71.24;97762.66;110052;1250;59758;-76
2022/06/27 05:34:39;;;;;;;4.10;3.60;;;;;;;18.52;71.08;97761.23;110075;1249;70773;-78
2022/06/27 05:37:09;;;;;;;3.90;3.50;;;;;;;18.57;70.20;97764.12;110162;1247;68605;-77
2022/06/27 05:39:40;;;;;;;3.90;3.30;;;;;;;18.61;70.16;97768.88;110006;1250;69242;-79
2022/06/27 05:42:10;;;;;;;4.50;4.10;;;;;;;18.78;69.90;97766.84;110160;1248;59741;-78
2022/06/27 05:44:39;;;;;;;5.50;4.70;;;;;;;18.87;69.03;97765.43;110018;1251;59700;-78
2022/06/27 05:47:09;;;;;;;4.50;3.80;;;;;;;18.92;68.47;97770.21;109990;1250;70566;-77
2022/06/27 05:49:39;;;;;;;4.60;3.70;;;;;;;18.97;69.01;97771.84;110129;1248;66820;-76
2022/06/27 05:52:09;;;;;;;4.30;3.90;;;;;;;19.04;68.27;97772.83;110012;1250;69406;-78
2022/06/27 05:54:38;;;;;;;5.80;4.10;;;;;;;19.02;68.03;97772.63;109999;1250;59858;-77
2022/06/27 05:57:07;;;;;;;4.10;3.70;;;;;;;19.13;68.48;97772.70;109843;1251;59760;-77
2022/06/27 05:59:37;;;;;;;5.40;4.30;;;;;;;19.22;68.08;97772.22;110154;1250;71586;-76
2022/06/27 06:02:07;;;;;;;4.00;3.60;;;;;;;19.18;67.60;97773.52;110037;1250;68694;-78
2022/06/27 06:04:38;;;;;;;5.50;4.40;;;;;;;19.19;68.26;97769.92;110087;1250;68456;-80
2022/06/27 06:07:12;;;;;;;5.80;4.40;;;;;;;19.16;67.55;97770.71;109941;1250;59743;-75
2022/06/27 06:09:42;;;;;;;5.30;4.10;;;;;;;19.32;68.14;97772.08;109904;1250;59720;-74
2022/06/27 06:12:12;;;;;;;5.40;3.90;;;;;;;19.49;67.47;97774.74;110074;1250;71550;-76
2022/06/27 06:14:46;;;;;;;5.40;3.70;;;;;;;19.67;66.87;97779.65;110165;1250;67588;-73
2022/06/27 06:17:16;;;;;;;3.90;3.50;;;;;;;19.85;66.20;97779.89;109984;1251;69453;-73
2022/06/27 06:19:45;;;;;;;;;;;;;;;19.94;65.30;97784.72;110177;1251;59691;-74
2022/06/27 06:22:14;;;;;;;5.20;3.90;;;;;;;20.04;64.69;97782.13;110104;1250;59664;-73
2022/06/27 06:24:47;;;;;;;4.20;3.70;;;;;;;20.21;64.24;97779.29;109892;1248;71539;-73
2022/06/27 06:27:17;;;;;;;4.30;3.70;;;;;;;20.40;64.26;97780.41;109783;1250;68608;-69
2022/06/27 06:29:47;;;;;;;4.20;3.80;;;;;;;20.62;63.82;97778.59;109904;1251;68663;-74
2022/06/27 06:32:17;;;;;;;4.30;3.70;;;;;;;20.97;63.32;97771.16;109877;1251;59698;-67
2022/06/27 06:34:48;;;;;;;5.10;3.90;;;;;;;21.41;62.33;97769.95;109829;1250;59637;-77
2022/06/27 06:37:18;;;;;;;4.20;3.60;;;;;;;21.81;60.66;97766.84;109893;1251;71374;-69
2022/06/27 06:39:47;;;;;;;3.70;3.30;;;;;;;22.24;60.18;97763.90;109967;1251;66644;-72
2022/06/27 06:42:16;;;;;;;6.60;3.70;;;;;;;22.71;56.44;97764.65;110125;1250;68712;-74
2022/06/27 06:45:10;;;;;;;4.80;3.30;;;;;;;23.21;56.56;97765.98;110003;1247;59694;-73
2022/06/27 06:47:50;;;;;;;3.30;3.00;;;;;;;23.45;54.15;97769.27;109903;1248;59789;-75
2022/06/27 06:50:22;;;;;;;5.00;3.30;;;;;;;23.92;54.90;97772.79;110131;1250;70842;-74
2022/06/27 06:52:53;;;;;;;4.50;3.70;;;;;;;24.22;53.06;97774.11;110197;1247;66821;-74
2022/06/27 06:55:24;;;;;;;5.20;3.50;;;;;;;24.54;53.50;97772.99;110201;1247;69118;-71
2022/06/27 06:57:54;;;;;;;5.10;3.80;;;;;;;24.55;51.43;97779.69;110180;1250;59778;-74
2022/06/27 07:00:23;;;;;;;4.90;3.80;;;;;;;24.40;51.38;97775.77;110189;1248;59680;-73
2022/06/27 07:02:53;;;;;;;7.00;4.80;;;;;;;24.65;51.43;97775.69;110173;1247;70787;-70
2022/06/27 07:05:22;;;;;;;5.60;4.40;;;;;;;24.97;51.12;97773.81;109951;1248;67816;-73
2022/06/27 07:07:52;;;;;;;6.40;4.50;;;;;;;25.26;50.18;97775.73;110102;1250;69528;-76
2022/06/27 07:10:21;;;;;;;5.20;4.60;;;;;;;25.61;49.54;97773.88;110019;1250;59811;-73
2022/06/27 07:12:51;;;;;;;5.30;4.30;;;;;;;25.89;49.01;97779.27;110007;1250;59795;-74
2022/06/27 07:15:21;;;;;;;6.70;4.70;;;;;;;26.00;46.95;97778.70;110148;1247;70769;-77
2022/06/27 07:17:52;;;;;;;5.50;4.60;;;;;;;25.89;47.39;97779.20;110156;1249;67819;-76
2022/06/27 07:20:22;;;;;;;4.70;4.20;;;;;;;25.77;47.50;97779.69;110134;1248;69445;-76
2022/06/27 07:22:51;;;;;;;7.00;4.30;;;;;;;25.14;47.71;97781.88;110061;1250;59724;-76
2022/06/27 07:25:20;;;;;;;4.70;3.60;;;;;;;24.94;48.35;97786.50;109978;1248;59770;-75
2022/06/27 07:27:51;;;;;;;4.30;3.80;;;;;;;25.41;47.80;97780.56;109649;1249;719232;-76
2022/06/27 07:30:20;;;;;;;6.00;4.30;;;;;;;25.57;46.59;97776.83;109897;1250;67678;-76
2022/06/27 07:32:49;;;;;;;;;;;;;;;25.52;46.78;97777.33;110156;1247;68882;-80
2022/06/27 07:35:18;;;;;;;4.90;3.40;;;;;;;25.58;46.04;97776.55;110144;1247;59694;-69
2022/06/27 07:37:48;;;;;;;6.40;4.60;;;;;;;25.82;45.76;97780.15;109937;1248;59615;-69
2022/06/27 07:40:20;;;;;;;4.40;3.40;;;;;;;25.79;45.27;97781.16;110189;1247;71527;-76
2022/06/27 07:42:52;;;;;;;4.70;3.60;;;;;;;25.87;45.63;97778.04;110193;1248;68573;-77
2022/06/27 07:45:23;;;;;;;6.00;3.90;;;;;;;26.07;44.27;97779.28;110140;1248;68007;-79
2022/06/27 07:47:56;;;;;;;4.20;3.80;;;;;;;26.05;44.40;97780.69;109924;1251;59706;-76
2022/06/27 07:50:40;;;;;;;4.80;4.00;;;;;;;26.04;44.67;97783.36;110011;1249;59843;-78
2022/06/27 07:53:14;;;;;;;4.20;3.40;;;;;;;26.26;44.08;97782.56;110002;1248;71665;-79
2022/06/27 07:55:55;;;;;;;4.00;3.50;;;;;;;26.75;42.98;97785.02;110184;1247;68586;-71
2022/06/27 07:58:33;;;;;;;7.70;5.20;;;;;;;26.81;41.90;97782.22;110135;1250;68676;-80
2022/06/27 08:01:04;;;;;;;6.20;5.30;;;;;;;26.73;42.52;97781.70;110160;1248;59691;-79
2022/06/27 08:03:39;;;;;;;6.60;4.60;;;;;;;26.71;42.46;97781.27;109983;1248;59672;-80
2022/06/27 08:06:13;;;;;;;6.10;4.60;;;;;;;26.47;42.20;97778.74;110196;1247;71582;-79
2022/06/27 08:08:45;;;;;;;6.20;5.50;;;;;;;26.93;41.43;97778.31;110195;1247;67786;-78
2022/06/27 08:11:23;;;;;;;8.30;5.10;;;;;;;26.81;40.97;97776.83;109968;1250;69414;-80
2022/06/27 08:13:54;;;;;;;5.50;4.60;;;;;;;27.07;41.80;97770.84;110190;1247;59707;-79
2022/06/27 08:16:25;;;;;;;8.60;4.80;;;;;;;27.78;41.65;97773.90;110213;1248;59701;-78
2022/06/27 08:18:55;;;;;;;6.60;4.30;;;;;;;28.41;40.14;97775.06;110182;1250;71637;-78
2022/06/27 08:21:27;;;;;;;5.10;4.00;;;;;;;28.68;39.17;97771.92;110020;1248;68125;-76
2022/06/27 08:23:59;;;;;;;5.10;3.90;;;;;;;29.26;38.49;97774.63;110207;1248;69247;-75
2022/06/27 08:26:29;;;;;;;5.10;3.50;;;;;;;29.54;37.84;97771.80;109980;1250;59753;-76
2022/06/27 08:29:00;;;;;;;4.50;3.60;;;;;;;29.81;36.38;97769.92;110279;1247;59701;-76
2022/06/27 08:31:30;;;;;;;5.20;3.50;;;;;;;29.92;36.75;97767.19;109973;1248;71531;-76
2022/06/27 08:34:03;;;;;;;4.60;3.10;;;;;;;30.24;36.19;97769.14;110023;1251;67809;-77
2022/06/27 08:36:36;;;;;;;4.00;3.20;;;;;;;30.39;36.47;97769.73;110104;1250;69489;-72
2022/06/27 08:39:18;;;;;;;3.40;3.10;;;;;;;30.24;34.95;97771.35;109996;1248;59803;-77
2022/06/27 08:41:48;;;;;;;4.20;2.70;;;;;;;30.39;34.99;97767.59;109987;1251;59632;-71
2022/06/27 08:44:19;;;;;;;6.00;5.10;;;;;;;30.91;35.46;97767.95;110180;1248;71545;-73
2022/06/27 08:46:51;;;;;;;5.90;4.40;;;;;;;31.04;34.22;97768.38;110149;1248;67341;-73
2022/06/27 08:49:22;;;;;;;7.90;5.30;;;;;;;31.20;34.66;97766.28;110134;1247;68487;-75
2022/06/27 08:51:50;;;;;;;5.70;4.00;;;;;;;30.95;34.38;97761.89;109864;1249;59737;-73
2022/06/27 08:54:19;;;;;;;7.40;4.70;;;;;;;30.85;34.37;97758.80;110179;1247;59760;-75
2022/06/27 08:56:50;;;;;;;7.40;5.80;;;;;;;31.23;34.37;97765.64;109944;1250;70913;-76
2022/06/27 08:59:19;;;;;;;9.00;5.70;;;;;;;31.13;33.97;97759.58;110144;1247;68250;-75
2022/06/27 09:01:48;;;;;;;6.40;5.30;;;;;;;30.93;33.71;97761.20;109935;1250;68997;-72
2022/06/27 09:04:17;;;;;;;6.40;4.70;;;;;;;30.61;34.18;97760.28;110192;1248;60056;-73
2022/06/27 09:06:47;;;;;;;5.80;3.70;;;;;;;30.32;33.91;97761.63;109891;1251;59691;-71
2022/06/27 09:09:16;;;;;;;4.40;3.50;;;;;;;29.79;34.61;97761.13;110142;1250;71574;-75
2022/06/27 09:11:47;;;;;;;4.90;4.10;;;;;;;29.81;35.32;97759.45;109997;1250;67496;-76
2022/06/27 09:14:43;;;;;;;4.10;3.70;;;;;;;30.54;34.55;97760.60;109997;1251;68753;-77
2022/06/27 09:17:15;;;;;;;5.10;4.70;;;;;;;31.09;33.86;97763.14;110201;1247;59667;-76
2022/06/27 09:19:55;;;;;;;4.60;4.00;;;;;;;30.73;33.66;97758.90;109929;1250;59749;-71
2022/06/27 09:22:28;;;;;;;5.40;4.70;;;;;;;29.74;35.18;97754.13;110158;1248;71577;-74
2022/06/27 09:25:13;;;;;;;3.30;3.00;;;;;;;28.97;36.16;97755.21;110146;1248;67780;-72
2022/06/27 09:27:45;;;;;;;3.30;3.00;;;;;;;28.70;37.45;97748.81;109830;1251;69509;-74
2022/06/27 09:30:21;;;;;;;3.70;3.00;;;;;;;29.09;37.30;97742.41;110176;1248;59762;-75
2022/06/27 09:32:58;;;;;;;6.20;3.20;;;;;;;28.97;37.09;97742.61;110173;1247;59680;-78
2022/06/27 09:35:36;;;;;;;5.00;3.20;;;;;;;28.94;37.41;97739.61;110153;1247;72210;-74
2022/06/27 09:38:07;;;;;;;5.80;3.90;;;;;;;28.63;37.58;97738.44;110149;1250;68732;-73
2022/06/27 09:40:39;;;;;;;4.10;2.80;;;;;;;28.09;38.07;97738.11;110130;1249;68317;-68
2022/06/27 09:43:09;;;;;;;4.10;3.40;;;;;;;27.36;40.07;97731.64;109967;1248;59698;-71
2022/06/27 09:45:41;;;;;;;3.80;3.40;;;;;;;27.35;40.30;97731.60;110165;1247;59686;-73
2022/06/27 09:48:17;;;;;;;3.80;2.60;;;;;;;27.30;39.64;97728.39;109991;1251;70877;-76
2022/06/27 09:50:48;;;;;;;3.40;2.80;;;;;;;27.81;39.26;97725.38;110175;1248;67900;-73
2022/06/27 09:53:25;;;;;;;3.40;2.70;;;;;;;28.23;39.26;97722.56;110177;1247;68685;-74
2022/06/27 09:55:55;;;;;;;4.00;3.40;;;;;;;28.99;37.68;97724.37;110167;1249;59706;-74
2022/06/27 09:58:27;;;;;;;3.30;3.00;;;;;;;29.66;36.34;97717.64;110062;1249;59718;-75
2022/06/27 10:01:18;;;;;;;4.50;2.90;;;;;;;29.79;35.24;97722.32;109939;1251;70787;-75
2022/06/27 10:03:47;;;;;;;3.00;2.70;;;;;;;29.97;35.11;97719.52;110317;1250;67975;-74
2022/06/27 10:06:16;;;;;;;;;;;;;;;30.28;35.25;97716.17;110054;1250;68769;-76
2022/06/27 10:08:47;;;;;;;3.90;3.30;;;;;;;30.53;33.91;97720.91;110088;1248;59754;-77
2022/06/27 10:11:21;;;;;;;5.30;2.90;;;;;;;30.14;34.06;97720.22;110166;1248;59688;-76
2022/06/27 10:14:14;;;;;;;3.20;2.70;;;;;;;30.32;34.28;97716.16;110122;1247;71693;-75
2022/06/27 10:16:57;;;;;;;3.40;3.10;;;;;;;30.76;33.71;97713.20;110140;1248;68644;-75
2022/06/27 10:19:29;;;;;;;5.90;3.40;;;;;;;30.52;33.90;97706.55;109917;1250;69386;-74
2022/06/27 10:21:58;;;;;;;5.10;2.90;;;;;;;29.92;34.39;97702.84;110045;1250;59745;-76
2022/06/27 10:24:29;;;;;;;4.00;3.20;;;;;;;29.62;34.80;97698.25;110087;1250;59683;-73
2022/06/27 10:27:02;;;;;;;3.70;2.90;;;;;;;29.58;35.49;97694.30;110081;1250;70883;-70
2022/06/27 10:29:39;;;;;;;4.00;3.20;;;;;;;29.83;35.29;97695.00;110208;1247;67870;-72
2022/06/27 10:32:43;;;;;;;3.40;3.00;;;;;;;29.58;35.37;97687.98;110145;1247;69364;-72
2022/06/27 10:35:14;;;;;;;3.50;2.80;;;;;;;28.93;36.66;97686.64;110145;1249;59793;-74
2022/06/27 10:37:44;;;;;;;4.80;2.70;;;;;;;28.76;36.76;97688.30;110203;1247;59695;-72
2022/06/27 10:40:19;;;;;;;3.60;2.80;;;;;;;28.63;36.66;97685.19;110214;1248;70685;-74
2022/06/27 10:42:53;;;;;;;6.30;3.30;;;;;;;28.94;36.58;97682.48;110128;1248;68634;-73
2022/06/27 10:45:28;;;;;;;4.00;2.90;;;;;;;29.10;36.50;97677.90;110169;1247;69556;-76
2022/06/27 10:48:02;;;;;;;3.10;2.80;;;;;;;29.19;36.18;97675.27;109973;1248;59718;-74
2022/06/27 10:50:42;;;;;;;4.90;3.20;;;;;;;29.48;36.00;97673.09;110089;1249;59637;-67
2022/06/27 10:53:21;;;;;;;4.60;3.20;;;;;;;29.45;36.01;97665.54;110148;1250;70592;-78
2022/06/27 10:55:52;;;;;;;3.40;3.10;;;;;;;29.04;35.91;97666.77;110109;1250;69386;-68
2022/06/27 10:58:23;;;;;;;2.90;2.60;;;;;;;29.00;36.42;97670.88;109959;1248;69246;-73
2022/06/27 11:01:10;;;;;;;4.30;2.50;;;;;;;28.97;36.17;97665.35;110195;1247;59756;-73
2022/06/27 11:03:40;;;;;;;2.50;2.10;;;;;;;29.35;36.66;97660.77;110174;1247;59742;-72
2022/06/27 11:06:13;;;;;;;4.10;2.80;;;;;;;29.75;35.72;97656.70;110112;1248;71911;-68
2022/06/27 11:08:46;;;;;;;3.00;2.60;;;;;;;29.52;34.92;97655.31;110183;1249;67760;-74
2022/06/27 11:11:30;;;;;;;4.90;3.10;;;;;;;29.12;36.28;97651.42;110129;1247;69512;-74
2022/06/27 11:14:01;;;;;;;5.00;3.10;;;;;;;28.93;36.73;97650.25;110031;1248;59726;-66
2022/06/27 11:16:32;;;;;;;4.20;2.30;;;;;;;28.49;37.03;97652.29;110176;1247;59643;-75
2022/06/27 11:20:04;;;;;;;3.40;2.30;;;;;;;28.18;37.44;97653.75;110010;1250;72253;-74
2022/06/27 11:21:53;;;;;;;3.00;2.70;;;;;;;28.13;37.95;97652.88;110139;1247;67697;-71
2022/06/27 11:24:22;;;;;;;6.10;2.40;;;;;;;28.24;37.77;97651.65;109907;1250;69456;-73
2022/06/27 11:26:51;;;;;;;3.50;2.60;;;;;;;28.59;37.19;97650.92;109903;1248;59757;-76
2022/06/27 11:32:11;;;;;;;2.60;2.40;;;;;;;28.70;36.47;97642.75;110183;1247;70851;-75
2022/06/27 11:34:49;;;;;;;2.40;2.20;;;;;;;29.00;36.14;97641.33;110120;1247;67793;-68
2022/06/27 11:37:19;;;;;;;2.80;2.40;;;;;;;29.14;35.78;97640.34;109877;1251;70243;-76
2022/06/27 11:40:00;;;;;;;3.30;2.90;;;;;;;29.04;35.86;97637.27;110002;1247;60085;-76
2022/06/27 11:42:31;;;;;;;3.80;3.00;;;;;;;28.99;35.59;97638.33;110124;1249;59715;-74
2022/06/27 11:45:08;;;;;;;3.70;2.70;;;;;;;28.68;35.96;97635.04;110129;1250;71342;-73
2022/06/27 11:47:40;;;;;;;2.50;2.30;;;;;;;28.69;36.25;97627.17;110187;1247;68799;-76
2022/06/27 11:50:14;;;;;;;3.10;2.20;;;;;;;29.15;36.06;97626.66;110156;1247;69270;-75
2022/06/27 11:52:44;;;;;;;2.60;2.40;;;;;;;29.64;35.32;97625.23;110121;1247;59766;-72
2022/06/27 11:55:19;;;;;;;3.10;2.50;;;;;;;30.04;34.03;97622.33;110155;1247;59744;-76
2022/06/27 11:57:50;;;;;;;2.60;2.40;;;;;;;29.84;34.43;97618.84;109885;1251;71445;-75
2022/06/27 12:00:33;;;;;;;2.30;2.10;;;;;;;29.93;33.55;97615.68;110010;1250;67691;-71